Time;durP1;ratioP1;P1;durP2;ratioP2;P2;SDS_P1;SDS_P2;PMS_P1;PMS_P2;Temp;Humidity;BMP_temperature;BMP_pressure;BME280_temperature;BME280_humidity;BME280_pressure;Samples;Min_cycle;Max_cycle;Signal;HPM_P1;HPM_P2
2022/01/03 00:01:32;;;;;;;;;;;;;;;21.75;30.16;98139.59;4900992;29;775;-74
2022/01/03 00:03:58;;;;;;;;;;;;;;;21.63;30.41;98131.81;4859499;29;974;-73
2022/01/03 00:06:23;;;;;;;;;;;;;;;22.07;29.76;98115.31;4863368;29;1903;-73
2022/01/03 00:08:48;;;;;;;;;;;;;;;21.87;29.97;98121.09;4863312;29;772;-74
2022/01/03 00:11:15;;;;;;;;;;;;;;;21.74;30.16;98115.34;4866413;29;897;-74
2022/01/03 00:13:41;;;;;;;;;;;;;;;21.97;30.07;98113.56;4881718;29;768;-73
2022/01/03 00:16:09;;;;;;;;;;;;;;;21.67;30.58;98115.53;4882055;29;773;-74
2022/01/03 00:18:34;;;;;;;;;;;;;;;21.69;30.38;98113.03;4881664;29;1183;-73
2022/01/03 00:21:00;;;;;;;;;;;;;;;22.04;29.77;98102.03;4881754;29;785;-73
2022/01/03 00:23:26;;;;;;;;;;;;;;;22.00;29.88;98098.50;4881618;29;815;-74
2022/01/03 00:25:52;;;;;;;;;;;;;;;22.02;29.73;98085.50;4911105;29;1895;-73
2022/01/03 00:28:24;;;;;;;;;;;;;;;21.90;30.16;98093.91;4899921;29;976;-74
2022/01/03 00:30:50;;;;;;;;;;;;;;;22.06;29.46;98091.03;4865658;29;873;-74
2022/01/03 00:33:17;;;;;;;;;;;;;;;22.02;29.89;98084.66;4881290;29;1012;-74
2022/01/03 00:35:42;;;;;;;;;;;;;;;22.02;29.75;98087.50;4892639;29;1556;-73
2022/01/03 00:38:09;;;;;;;;;;;;;;;21.69;30.03;98089.59;4918873;29;835;-74
2022/01/03 00:40:34;;;;;;;;;;;;;;;21.61;30.57;98089.00;4918887;29;906;-73
2022/01/03 00:43:00;;;;;;;;;;;;;;;22.58;29.55;98079.47;4918889;29;967;-74
2022/01/03 00:45:25;;;;;;;;;;;;;;;22.73;29.53;98082.69;4899576;29;1974;-74
2022/01/03 00:47:50;;;;;;;;;;;;;;;21.79;30.38;98078.00;4862260;29;1240;-73
2022/01/03 00:50:17;;;;;;;;;;;;;;;21.95;30.06;98079.22;4825774;29;1020;-73
2022/01/03 00:52:43;;;;;;;;;;;;;;;22.12;29.97;98077.94;4807634;29;910;-73
2022/01/03 00:55:08;;;;;;;;;;;;;;;22.02;30.23;98068.50;4807464;29;788;-74
2022/01/03 00:57:39;;;;;;;;;;;;;;;22.17;30.19;98063.22;4807316;29;1207;-73
2022/01/03 01:00:06;;;;;;;;;;;;;;;22.15;29.92;98054.41;4771529;30;996;-74
2022/01/03 01:02:35;;;;;;;;;;;;;;;21.64;30.89;98047.66;4738780;30;1731;-74
2022/01/03 01:05:02;;;;;;;;;;;;;;;22.00;30.27;98047.50;4753519;30;1916;-73
2022/01/03 01:07:27;;;;;;;;;;;;;;;21.51;31.08;98039.09;4753418;30;1231;-73
2022/01/03 01:09:53;;;;;;;;;;;;;;;22.15;29.81;98026.06;4771219;30;1271;-74
2022/01/03 01:12:19;;;;;;;;;;;;;;;21.62;30.66;98014.13;4771458;30;1275;-73
2022/01/03 01:14:45;;;;;;;;;;;;;;;21.90;30.56;98008.94;4736045;30;1037;-74
2022/01/03 01:17:10;;;;;;;;;;;;;;;21.93;30.18;98010.88;4735597;30;1083;-73
2022/01/03 01:19:36;;;;;;;;;;;;;;;21.49;31.18;98001.94;4735655;30;826;-73
2022/01/03 01:22:01;;;;;;;;;;;;;;;21.72;30.92;97996.06;4723616;30;1258;-73
2022/01/03 01:24:33;;;;;;;;;;;;;;;21.81;30.66;97990.56;4753086;30;877;-74
2022/01/03 01:29:44;;;;;;;;;;;;;;;21.41;31.27;97977.91;4750234;30;1593;-74
2022/01/03 01:32:13;;;;;;;;;;;;;;;21.71;31.24;97983.16;4767396;30;1291;-73
2022/01/03 01:34:39;;;;;;;;;;;;;;;22.70;30.33;97978.66;4788175;30;1119;-74
2022/01/03 01:37:05;;;;;;;;;;;;;;;22.80;29.86;97974.69;4806643;29;1191;-73
2022/01/03 01:39:35;;;;;;;;;;;;;;;21.81;31.30;97956.56;4810495;29;1176;-73
2022/01/03 01:42:01;;;;;;;;;;;;;;;22.22;30.28;97969.16;4807571;29;1101;-74
2022/01/03 01:44:31;;;;;;;;;;;;;;;22.28;29.53;97961.72;4791691;29;1201;-73
2022/01/03 01:46:57;;;;;;;;;;;;;;;22.10;30.23;97944.41;4804623;29;1995;-73
2022/01/03 01:49:23;;;;;;;;;;;;;;;21.90;30.56;97949.44;4824759;29;1248;-74
2022/01/03 01:51:57;;;;;;;;;;;;;;;21.90;30.95;97940.94;4806508;29;874;-73
2022/01/03 01:54:25;;;;;;;;;;;;;;;21.76;31.12;97933.63;4770826;30;1097;-73
2022/01/03 01:57:00;;;;;;;;;;;;;;;21.95;30.73;97935.50;4755837;30;1104;-74
2022/01/03 01:59:40;;;;;;;;;;;;;;;21.61;31.49;97930.44;4770815;30;1310;-73
2022/01/03 02:02:07;;;;;;;;;;;;;;;21.78;30.93;97923.47;4773797;30;1219;-73
2022/01/03 02:04:41;;;;;;;;;;;;;;;21.92;30.51;97927.16;4788214;30;1911;-74
2022/01/03 02:07:11;;;;;;;;;;;;;;;21.95;30.50;97927.03;4788859;29;1088;-73
2022/01/03 02:09:43;;;;;;;;;;;;;;;22.07;30.12;97916.94;4770679;30;1210;-73
2022/01/03 02:12:16;;;;;;;;;;;;;;;22.02;30.38;97906.16;4770678;30;1330;-73
2022/01/03 02:14:42;;;;;;;;;;;;;;;21.68;30.77;97896.25;4777091;29;1259;-73
2022/01/03 02:17:11;;;;;;;;;;;;;;;21.97;30.43;97895.44;4809496;29;1494;-73
2022/01/03 02:19:37;;;;;;;;;;;;;;;22.01;30.18;97905.38;4827438;29;1113;-73
2022/01/03 02:22:03;;;;;;;;;;;;;;;22.15;30.01;97904.19;4791866;30;1413;-74
2022/01/03 02:24:37;;;;;;;;;;;;;;;21.91;30.24;97891.53;4768675;29;1907;-74
2022/01/03 02:27:03;;;;;;;;;;;;;;;22.12;30.15;97884.47;4838921;29;1302;-73
2022/01/03 02:29:29;;;;;;;;;;;;;;;21.68;31.03;97876.41;4827902;29;920;-74
2022/01/03 02:31:54;;;;;;;;;;;;;;;21.74;30.61;97868.94;4828268;29;890;-73
2022/01/03 02:34:20;;;;;;;;;;;;;;;21.78;30.40;97877.34;4846300;29;866;-73
2022/01/03 02:36:46;;;;;;;;;;;;;;;21.71;30.53;97881.19;4827670;29;1311;-74
2022/01/03 02:39:11;;;;;;;;;;;;;;;21.64;31.07;97878.56;4813154;29;934;-73
2022/01/03 02:41:37;;;;;;;;;;;;;;;21.79;30.43;97862.75;4795036;29;949;-73
2022/01/03 02:44:02;;;;;;;;;;;;;;;21.77;30.32;97865.25;4828082;29;773;-73
2022/01/03 02:46:28;;;;;;;;;;;;;;;21.41;31.32;97864.66;4812754;29;1923;-73
2022/01/03 02:48:54;;;;;;;;;;;;;;;21.82;30.29;97847.69;4828063;29;955;-73
2022/01/03 02:51:19;;;;;;;;;;;;;;;22.08;29.81;97844.88;4827678;29;743;-73
2022/01/03 02:53:44;;;;;;;;;;;;;;;22.01;29.83;97851.56;4823829;29;1139;-73
2022/01/03 02:56:10;;;;;;;;;;;;;;;21.89;30.29;97855.16;4827291;29;2385;-73
2022/01/03 02:58:39;;;;;;;;;;;;;;;22.14;29.62;97848.78;4791267;30;970;-73
2022/01/03 03:01:04;;;;;;;;;;;;;;;21.65;30.48;97846.16;4796869;29;1104;-74
2022/01/03 03:03:39;;;;;;;;;;;;;;;21.95;29.95;97836.38;4827667;29;1218;-74
2022/01/03 03:06:05;;;;;;;;;;;;;;;21.92;30.08;97834.44;4827751;29;1911;-73
2022/01/03 03:08:32;;;;;;;;;;;;;;;21.64;30.55;97827.59;4827423;29;1095;-74
2022/01/03 03:11:02;;;;;;;;;;;;;;;21.54;30.58;97823.03;4758805;30;1200;-73
2022/01/03 03:13:27;;;;;;;;;;;;;;;22.10;29.81;97814.06;4723707;30;1247;-74
2022/01/03 03:15:58;;;;;;;;;;;;;;;21.94;29.68;97822.66;4717266;30;1336;-74
2022/01/03 03:18:24;;;;;;;;;;;;;;;21.84;29.99;97825.34;4720305;30;1296;-74
2022/01/03 03:20:49;;;;;;;;;;;;;;;21.37;31.04;97815.84;4720532;30;868;-74
2022/01/03 03:23:15;;;;;;;;;;;;;;;21.68;30.33;97811.28;4705528;30;1006;-74
2022/01/03 03:25:41;;;;;;;;;;;;;;;21.91;30.03;97806.56;4702547;30;1912;-74
2022/01/03 03:28:10;;;;;;;;;;;;;;;21.85;29.99;97806.31;4703038;30;1306;-73
2022/01/03 03:30:46;;;;;;;;;;;;;;;22.10;29.48;97814.88;4690270;30;1398;-73
2022/01/03 03:33:18;;;;;;;;;;;;;;;21.71;30.11;97810.41;4720220;30;1174;-73
2022/01/03 03:35:50;;;;;;;;;;;;;;;21.92;30.17;97808.16;4720103;30;1471;-73
2022/01/03 03:38:16;;;;;;;;;;;;;;;21.43;30.83;97805.56;4720211;30;1281;-73
2022/01/03 03:40:45;;;;;;;;;;;;;;;21.91;29.61;97796.00;4702770;30;1159;-73
2022/01/03 03:43:11;;;;;;;;;;;;;;;21.93;29.54;97792.75;4719863;30;1218;-73
2022/01/03 03:45:36;;;;;;;;;;;;;;;21.44;30.81;97795.81;4789667;29;1907;-74
2022/01/03 03:48:04;;;;;;;;;;;;;;;21.93;29.84;97792.75;4792974;29;1335;-74
2022/01/03 03:50:32;;;;;;;;;;;;;;;21.75;30.04;97781.97;4807754;29;1829;-73
2022/01/03 03:52:58;;;;;;;;;;;;;;;22.01;29.47;97779.94;4808791;29;1100;-73
2022/01/03 03:55:23;;;;;;;;;;;;;;;21.67;30.31;97780.59;4808638;29;891;-74
2022/01/03 03:57:49;;;;;;;;;;;;;;;21.24;31.04;97771.31;4790197;29;1056;-73
2022/01/03 04:00:16;;;;;;;;;;;;;;;21.83;29.98;97778.47;4772658;30;1318;-74
2022/01/03 04:02:46;;;;;;;;;;;;;;;21.90;29.65;97773.81;4811791;29;1157;-73
2022/01/03 04:05:14;;;;;;;;;;;;;;;22.05;29.62;97766.44;4863329;29;1907;-73
2022/01/03 04:07:40;;;;;;;;;;;;;;;21.75;30.22;97765.75;4832876;29;1100;-73
2022/01/03 04:10:07;;;;;;;;;;;;;;;21.46;30.66;97748.06;4811205;29;1092;-73
2022/01/03 04:12:32;;;;;;;;;;;;;;;21.53;30.70;97747.84;4826586;29;1030;-73
2022/01/03 04:15:01;;;;;;;;;;;;;;;22.09;29.50;97744.47;4826536;29;1159;-74
2022/01/03 04:17:26;;;;;;;;;;;;;;;22.14;29.41;97752.44;4841539;29;1001;-74
2022/01/03 04:19:51;;;;;;;;;;;;;;;21.94;29.52;97740.50;4808196;29;1101;-73
2022/01/03 04:22:18;;;;;;;;;;;;;;;21.93;29.77;97730.44;4823221;29;1281;-73
2022/01/03 04:24:43;;;;;;;;;;;;;;;21.92;29.67;97734.50;4789984;30;1978;-73
2022/01/03 04:27:09;;;;;;;;;;;;;;;21.81;30.06;97735.66;4790233;30;1457;-73
2022/01/03 04:29:34;;;;;;;;;;;;;;;21.89;29.72;97729.75;4789657;30;1259;-73
2022/01/03 04:32:00;;;;;;;;;;;;;;;22.12;29.53;97732.25;4816929;29;1243;-74
2022/01/03 04:34:26;;;;;;;;;;;;;;;21.69;30.26;97739.25;4780652;29;1469;-74
2022/01/03 04:36:51;;;;;;;;;;;;;;;21.92;29.50;97726.03;4826404;29;887;-73
2022/01/03 04:39:17;;;;;;;;;;;;;;;21.94;29.66;97723.50;4771647;30;1148;-74
2022/01/03 04:41:46;;;;;;;;;;;;;;;21.96;29.76;97723.84;4767267;30;1129;-74
2022/01/03 04:44:11;;;;;;;;;;;;;;;22.08;29.66;97737.22;4789669;30;879;-73
2022/01/03 04:46:37;;;;;;;;;;;;;;;21.96;29.61;97738.00;4789489;30;1897;-73
2022/01/03 04:49:03;;;;;;;;;;;;;;;22.14;29.12;97735.44;4790129;30;818;-73
2022/01/03 04:51:28;;;;;;;;;;;;;;;21.99;29.32;97748.44;4775997;30;866;-74
2022/01/03 04:53:54;;;;;;;;;;;;;;;22.20;29.09;97727.94;4771543;30;835;-74
2022/01/03 04:56:20;;;;;;;;;;;;;;;21.75;30.03;97730.97;4786644;29;1218;-73
2022/01/03 04:58:46;;;;;;;;;;;;;;;21.88;29.67;97716.84;4789423;29;1539;-74
2022/01/03 05:01:12;;;;;;;;;;;;;;;21.78;29.52;97719.56;4771342;30;1234;-74
2022/01/03 05:03:37;;;;;;;;;;;;;;;21.80;29.70;97736.88;4771407;30;1089;-73
2022/01/03 05:06:03;;;;;;;;;;;;;;;21.94;29.49;97729.97;4772728;30;1907;-73
2022/01/03 05:08:29;;;;;;;;;;;;;;;21.93;29.77;97716.28;4825474;29;1121;-73
2022/01/03 05:10:55;;;;;;;;;;;;;;;22.16;28.93;97715.91;4800034;29;953;-73
2022/01/03 05:13:20;;;;;;;;;;;;;;;22.17;29.19;97723.16;4807224;29;1143;-73
2022/01/03 05:15:46;;;;;;;;;;;;;;;22.21;29.12;97712.50;4820611;29;1028;-73
2022/01/03 05:18:12;;;;;;;;;;;;;;;22.06;29.05;97685.88;4806883;29;1290;-73
2022/01/03 05:20:37;;;;;;;;;;;;;;;21.79;29.93;97698.47;4807156;29;1166;-74
2022/01/03 05:23:04;;;;;;;;;;;;;;;22.12;29.33;97703.13;4824936;29;1473;-75
2022/01/03 05:25:29;;;;;;;;;;;;;;;21.95;29.61;97699.59;4806748;29;1899;-74
2022/01/03 05:27:55;;;;;;;;;;;;;;;22.12;28.93;97703.91;4755883;30;1268;-74
2022/01/03 05:30:21;;;;;;;;;;;;;;;21.65;29.96;97698.91;4756079;30;1178;-75
2022/01/03 05:32:46;;;;;;;;;;;;;;;22.16;29.23;97698.91;4758087;30;1137;-74
2022/01/03 05:35:12;;;;;;;;;;;;;;;21.18;30.94;97713.66;4753174;30;1053;-74
2022/01/03 05:37:37;;;;;;;;;;;;;;;21.90;29.49;97703.00;4754705;30;1310;-74
2022/01/03 05:40:04;;;;;;;;;;;;;;;21.71;29.68;97697.13;4740024;30;1073;-75
2022/01/03 05:42:30;;;;;;;;;;;;;;;21.83;29.52;97699.16;4736957;30;1153;-76
2022/01/03 05:44:57;;;;;;;;;;;;;;;21.87;29.46;97699.06;4770250;30;1909;-74
2022/01/03 05:47:23;;;;;;;;;;;;;;;21.52;30.10;97689.66;4770887;30;1288;-75
2022/01/03 05:49:48;;;;;;;;;;;;;;;21.54;30.19;97681.47;4788668;29;1180;-74
2022/01/03 05:52:14;;;;;;;;;;;;;;;21.91;29.64;97699.69;4806293;29;994;-75
2022/01/03 05:54:39;;;;;;;;;;;;;;;21.91;29.36;97701.75;4819107;29;1203;-74
2022/01/03 05:57:05;;;;;;;;;;;;;;;21.81;29.63;97696.00;4834595;29;1223;-75
2022/01/03 05:59:31;;;;;;;;;;;;;;;22.09;29.30;97704.81;4781831;29;1499;-75
2022/01/03 06:01:56;;;;;;;;;;;;;;;21.37;30.57;97711.13;4832904;29;1147;-75
2022/01/03 06:04:36;;;;;;;;;;;;;;;21.91;29.48;97699.69;4841721;29;1253;-74
2022/01/03 06:07:03;;;;;;;;;;;;;;;21.92;29.43;97700.53;4824484;29;1915;-74
2022/01/03 06:09:33;;;;;;;;;;;;;;;22.08;29.04;97704.00;4757773;30;1114;-74
2022/01/03 06:12:03;;;;;;;;;;;;;;;22.15;28.93;97697.34;4770402;30;1246;-75
2022/01/03 06:14:30;;;;;;;;;;;;;;;22.05;29.38;97689.94;4782406;30;1198;-74
2022/01/03 06:16:55;;;;;;;;;;;;;;;22.22;28.75;97697.09;4749003;30;1288;-75
2022/01/03 06:19:21;;;;;;;;;;;;;;;21.74;30.00;97686.91;4777965;30;1264;-74
2022/01/03 06:21:47;;;;;;;;;;;;;;;21.41;30.64;97689.97;4781720;29;1349;-74
2022/01/03 06:24:17;;;;;;;;;;;;;;;21.83;29.81;97676.50;4767557;30;1265;-74
2022/01/03 06:26:43;;;;;;;;;;;;;;;21.97;29.41;97674.47;4769153;30;1915;-74
2022/01/03 06:29:08;;;;;;;;;;;;;;;22.14;29.31;97675.91;4751974;30;1248;-74
2022/01/03 06:31:34;;;;;;;;;;;;;;;21.95;29.34;97677.72;4772135;30;1359;-75
2022/01/03 06:33:59;;;;;;;;;;;;;;;21.97;29.53;97675.25;4787686;30;1204;-74
2022/01/03 06:36:25;;;;;;;;;;;;;;;21.36;30.73;97681.25;4787685;29;1244;-75
2022/01/03 06:38:52;;;;;;;;;;;;;;;21.75;29.86;97672.31;4772842;30;1292;-74
2022/01/03 06:41:17;;;;;;;;;;;;;;;22.03;29.42;97672.63;4785081;29;1184;-74
2022/01/03 06:43:43;;;;;;;;;;;;;;;22.25;28.96;97672.72;4773053;30;1290;-75
2022/01/03 06:46:10;;;;;;;;;;;;;;;22.27;29.13;97675.88;4760338;29;1980;-74
2022/01/03 06:48:35;;;;;;;;;;;;;;;22.15;29.37;97680.34;4752038;30;1293;-75
2022/01/03 06:51:01;;;;;;;;;;;;;;;21.61;30.15;97684.09;4794612;29;1303;-74
2022/01/03 06:53:26;;;;;;;;;;;;;;;21.95;29.58;97682.59;4795792;29;1259;-74
2022/01/03 06:55:52;;;;;;;;;;;;;;;22.02;29.45;97685.19;4798510;29;1290;-75
2022/01/03 06:58:17;;;;;;;;;;;;;;;22.09;29.28;97682.91;4796851;29;1354;-74
2022/01/03 07:00:45;;;;;;;;;;;;;;;22.21;29.11;97672.84;4830673;29;1231;-75
2022/01/03 07:03:10;;;;;;;;;;;;;;;21.88;29.48;97680.00;4837066;29;1255;-74
2022/01/03 07:05:36;;;;;;;;;;;;;;;22.01;29.25;97680.78;4836523;29;1907;-75
2022/01/03 07:08:01;;;;;;;;;;;;;;;21.80;29.70;97683.06;4835646;29;1247;-75
2022/01/03 07:10:27;;;;;;;;;;;;;;;21.82;29.47;97674.91;4836332;29;1329;-74
2022/01/03 07:12:53;;;;;;;;;;;;;;;21.77;29.99;97677.53;4838497;29;1258;-75
2022/01/03 07:20:47;;;;;;;;;;;;;;;21.84;29.62;97655.41;4901523;29;999;-74
2022/01/03 07:23:13;;;;;;;;;;;;;;;21.91;29.84;97647.94;4907709;29;1438;-74
2022/01/03 07:25:38;;;;;;;;;;;;;;;22.20;29.17;97648.59;4920153;29;1914;-74
2022/01/03 07:28:04;;;;;;;;;;;;;;;21.39;30.31;97643.53;4920051;29;1035;-75
2022/01/03 07:30:29;;;;;;;;;;;;;;;21.93;29.98;97642.63;4935288;29;1101;-75
2022/01/03 07:32:55;;;;;;;;;;;;;;;21.93;29.37;97634.13;4929446;29;1268;-74
2022/01/03 07:35:23;;;;;;;;;;;;;;;21.92;29.61;97627.66;4934779;28;1406;-75
2022/01/03 07:37:49;;;;;;;;;;;;;;;21.79;29.74;97618.38;4970699;28;1165;-75
2022/01/03 07:40:14;;;;;;;;;;;;;;;21.81;29.84;97625.19;4969849;28;1319;-75
2022/01/03 07:42:42;;;;;;;;;;;;;;;22.01;29.64;97615.63;4969333;28;1284;-75
2022/01/03 07:45:08;;;;;;;;;;;;;;;21.93;29.66;97634.13;4970625;28;1910;-75
2022/01/03 07:47:33;;;;;;;;;;;;;;;21.88;29.74;97631.88;4974843;28;1266;-75
2022/01/03 07:49:59;;;;;;;;;;;;;;;21.76;29.73;97637.09;4979730;28;1088;-75
2022/01/03 07:52:24;;;;;;;;;;;;;;;22.10;29.28;97621.38;4979589;28;893;-75
2022/01/03 07:54:52;;;;;;;;;;;;;;;21.87;29.75;97630.28;4979516;28;997;-75
2022/01/03 07:57:18;;;;;;;;;;;;;;;21.78;29.96;97630.97;4963952;28;1112;-76
2022/01/03 07:59:45;;;;;;;;;;;;;;;21.68;30.04;97626.44;4949150;28;1204;-76
2022/01/03 08:02:10;;;;;;;;;;;;;;;21.71;29.90;97634.84;4938249;29;1434;-76
2022/01/03 08:04:37;;;;;;;;;;;;;;;21.82;29.86;97632.44;4938424;29;1320;-76
2022/01/03 08:07:03;;;;;;;;;;;;;;;22.10;29.30;97638.38;4938251;29;1911;-76
2022/01/03 08:09:28;;;;;;;;;;;;;;;21.72;29.98;97629.97;4914566;29;1351;-76
2022/01/03 08:11:53;;;;;;;;;;;;;;;21.65;30.06;97635.84;4938081;29;1244;-76
2022/01/03 08:14:19;;;;;;;;;;;;;;;21.95;29.65;97637.28;4938080;29;1334;-76
2022/01/03 08:16:44;;;;;;;;;;;;;;;21.81;29.84;97642.19;4937252;29;1165;-76
2022/01/03 08:19:10;;;;;;;;;;;;;;;21.70;30.02;97650.22;4938092;29;1369;-76
2022/01/03 08:21:35;;;;;;;;;;;;;;;21.88;29.55;97637.53;4938155;29;1260;-76
2022/01/03 08:24:01;;;;;;;;;;;;;;;21.94;29.63;97647.03;4938153;29;1236;-76
2022/01/03 08:26:29;;;;;;;;;;;;;;;21.91;29.56;97639.44;4900415;29;1907;-76
2022/01/03 08:28:55;;;;;;;;;;;;;;;21.98;29.58;97642.03;4937824;29;1313;-76
2022/01/03 08:31:22;;;;;;;;;;;;;;;21.91;29.51;97636.59;4916456;29;1082;-76
2022/01/03 08:33:47;;;;;;;;;;;;;;;21.69;30.03;97636.53;4945521;28;1608;-76
2022/01/03 08:36:13;;;;;;;;;;;;;;;21.72;30.06;97635.63;4949301;28;1256;-76
2022/01/03 08:38:39;;;;;;;;;;;;;;;21.95;29.63;97631.63;4949326;28;1270;-76
2022/01/03 08:41:04;;;;;;;;;;;;;;;21.67;29.82;97622.81;4918616;29;1562;-76
2022/01/03 08:43:29;;;;;;;;;;;;;;;21.80;29.64;97614.31;4918442;29;1299;-76
2022/01/03 08:45:55;;;;;;;;;;;;;;;21.82;29.63;97606.94;4918768;29;1926;-76
2022/01/03 08:48:20;;;;;;;;;;;;;;;21.79;29.73;97607.84;4918351;29;1280;-76
2022/01/03 08:50:46;;;;;;;;;;;;;;;21.81;29.90;97605.38;4899518;29;1336;-76
2022/01/03 08:53:11;;;;;;;;;;;;;;;21.79;29.64;97607.84;4899816;29;1249;-77
2022/01/03 08:55:37;;;;;;;;;;;;;;;21.89;29.87;97599.44;4899572;29;1312;-76
2022/01/03 08:58:02;;;;;;;;;;;;;;;22.77;29.27;97595.47;4913624;29;1391;-76
2022/01/03 09:00:27;;;;;;;;;;;;;;;22.53;29.44;97591.53;4899047;29;1237;-76
2022/01/03 09:02:53;;;;;;;;;;;;;;;22.05;29.79;97585.91;4899357;29;1289;-76
2022/01/03 09:05:19;;;;;;;;;;;;;;;21.94;30.36;97591.16;4853576;29;1983;-76
2022/01/03 09:07:44;;;;;;;;;;;;;;;22.15;29.68;97584.00;4835676;29;1310;-75
2022/01/03 09:10:11;;;;;;;;;;;;;;;21.84;30.53;97584.63;4832574;29;1326;-76
2022/01/03 09:12:36;;;;;;;;;;;;;;;21.80;30.27;97581.09;4848687;29;1301;-75
2022/01/03 09:15:03;;;;;;;;;;;;;;;21.78;30.33;97577.16;4852033;29;1306;-75
2022/01/03 09:17:28;;;;;;;;;;;;;;;21.96;30.32;97576.53;4833957;29;1301;-76
2022/01/03 09:19:53;;;;;;;;;;;;;;;22.19;29.94;97578.22;4832550;29;1357;-76
2022/01/03 09:22:27;;;;;;;;;;;;;;;21.77;30.55;97564.25;4835184;29;1238;-74
2022/01/03 09:30:03;;;;;;;;;;;;;;;21.78;30.61;97552.47;4821841;29;1235;-74
2022/01/03 09:32:28;;;;;;;;;;;;;;;21.87;30.67;97550.97;4841876;29;1109;-74
2022/01/03 09:34:53;;;;;;;;;;;;;;;22.06;30.03;97544.22;4843764;29;936;-74
2022/01/03 09:37:20;;;;;;;;;;;;;;;22.02;29.93;97540.69;4843042;29;998;-74
2022/01/03 09:39:46;;;;;;;;;;;;;;;21.73;30.70;97530.38;4843243;29;999;-74
2022/01/03 09:42:12;;;;;;;;;;;;;;;21.76;30.68;97531.50;4878015;29;965;-75
2022/01/03 09:44:40;;;;;;;;;;;;;;;22.01;30.10;97511.59;4880292;29;985;-74
2022/01/03 09:47:06;;;;;;;;;;;;;;;21.58;30.97;97517.97;4915547;29;1914;-74
2022/01/03 09:49:32;;;;;;;;;;;;;;;22.01;30.10;97510.78;4917779;29;1094;-74
2022/01/03 09:51:58;;;;;;;;;;;;;;;21.94;30.42;97511.06;4917772;29;971;-74
2022/01/03 09:54:23;;;;;;;;;;;;;;;22.01;29.87;97510.78;4909680;29;1009;-74
2022/01/03 09:56:50;;;;;;;;;;;;;;;21.77;30.24;97507.63;4917546;29;1558;-74
2022/01/03 09:59:15;;;;;;;;;;;;;;;21.58;30.99;97509.47;4901833;29;1031;-74
2022/01/03 10:01:42;;;;;;;;;;;;;;;21.51;31.22;97501.25;4918008;29;1039;-74
2022/01/03 10:04:09;;;;;;;;;;;;;;;21.65;30.44;97506.38;4917718;29;959;-75
2022/01/03 10:06:34;;;;;;;;;;;;;;;22.01;30.14;97499.47;4917458;29;1919;-74
2022/01/03 10:09:00;;;;;;;;;;;;;;;21.65;30.66;97494.28;4917423;29;1040;-75
2022/01/03 10:11:26;;;;;;;;;;;;;;;22.04;30.00;97496.50;4901630;29;1000;-74
2022/01/03 10:13:52;;;;;;;;;;;;;;;21.80;30.00;97507.47;4926121;29;2074;-74
2022/01/03 10:16:17;;;;;;;;;;;;;;;22.02;30.04;97498.22;4936997;29;998;-74
2022/01/03 10:18:46;;;;;;;;;;;;;;;21.87;30.20;97508.50;4936785;29;987;-75
2022/01/03 10:21:12;;;;;;;;;;;;;;;21.91;30.16;97518.41;4879631;29;924;-74
2022/01/03 10:23:37;;;;;;;;;;;;;;;22.07;29.62;97508.94;4827475;29;1013;-75
2022/01/03 10:26:15;;;;;;;;;;;;;;;22.09;29.76;97506.47;4840335;29;1923;-74
2022/01/03 10:28:40;;;;;;;;;;;;;;;21.47;31.15;97498.53;4842842;29;1204;-74
2022/01/03 10:31:18;;;;;;;;;;;;;;;21.51;31.15;97498.41;4843146;29;997;-75
2022/01/03 10:33:44;;;;;;;;;;;;;;;22.02;29.69;97490.53;4843438;29;1017;-76
2022/01/03 10:36:24;;;;;;;;;;;;;;;22.11;29.75;97492.66;4842698;29;1341;-76
2022/01/03 10:38:50;;;;;;;;;;;;;;;22.11;29.74;97478.47;4843382;29;923;-75
2022/01/03 10:41:16;;;;;;;;;;;;;;;22.69;28.60;97469.41;4846845;29;955;-76
2022/01/03 10:43:43;;;;;;;;;;;;;;;22.24;29.70;97475.59;4883742;29;1194;-76
2022/01/03 10:46:18;;;;;;;;;;;;;;;22.14;29.69;97462.63;4883432;29;1976;-76
2022/01/03 10:48:44;;;;;;;;;;;;;;;21.85;29.69;97458.75;4864475;29;1158;-76
2022/01/03 10:51:09;;;;;;;;;;;;;;;21.81;29.90;97462.94;4867199;29;1142;-74
2022/01/03 10:53:38;;;;;;;;;;;;;;;22.28;29.41;97460.03;4885195;29;1287;-75
2022/01/03 10:56:24;;;;;;;;;;;;;;;21.93;30.09;97464.16;4882887;29;1245;-75
2022/01/03 10:58:50;;;;;;;;;;;;;;;21.95;30.08;97458.81;4898987;29;942;-74
2022/01/03 11:01:22;;;;;;;;;;;;;;;22.03;29.56;97462.97;4905138;29;1038;-74
2022/01/03 11:03:47;;;;;;;;;;;;;;;21.91;29.69;97460.97;4901788;29;914;-75
2022/01/03 11:06:23;;;;;;;;;;;;;;;21.74;30.14;97458.34;4864118;29;1903;-75
2022/01/03 11:11:39;;;;;;;;;;;;;;;22.12;29.14;97462.28;4809147;29;1003;-75
2022/01/03 11:14:04;;;;;;;;;;;;;;;22.15;29.57;97459.31;4794563;29;1037;-75
2022/01/03 11:16:30;;;;;;;;;;;;;;;21.63;30.58;97454.31;4794221;29;1055;-75
2022/01/03 11:18:56;;;;;;;;;;;;;;;21.71;30.60;97444.31;4812635;29;946;-75
2022/01/03 11:21:23;;;;;;;;;;;;;;;21.88;29.96;97440.06;4782315;29;1045;-75
2022/01/03 11:23:49;;;;;;;;;;;;;;;22.20;29.50;97427.53;4827266;29;1046;-75
2022/01/03 11:26:16;;;;;;;;;;;;;;;21.49;30.64;97430.13;4827361;29;2235;-75
2022/01/03 11:28:42;;;;;;;;;;;;;;;21.95;30.21;97422.78;4841857;29;1142;-75
2022/01/03 11:31:08;;;;;;;;;;;;;;;22.09;29.37;97424.31;4845733;29;990;-75
2022/01/03 11:33:36;;;;;;;;;;;;;;;22.25;29.23;97421.28;4845652;29;1001;-75
2022/01/03 11:36:02;;;;;;;;;;;;;;;21.89;30.08;97418.19;4864597;29;984;-75
2022/01/03 11:38:30;;;;;;;;;;;;;;;21.68;30.67;97426.22;4901167;29;965;-75
2022/01/03 11:40:55;;;;;;;;;;;;;;;21.45;31.05;97418.13;4901721;29;1004;-75
2022/01/03 11:43:21;;;;;;;;;;;;;;;22.34;29.35;97404.31;4938063;29;892;-75
2022/01/03 11:45:46;;;;;;;;;;;;;;;21.92;29.84;97414.44;4915202;29;1914;-75
2022/01/03 11:48:12;;;;;;;;;;;;;;;22.06;29.98;97419.56;4939309;29;987;-75
2022/01/03 11:50:37;;;;;;;;;;;;;;;21.96;29.76;97413.03;4938063;29;936;-75
2022/01/03 11:53:06;;;;;;;;;;;;;;;22.35;29.32;97416.47;4938912;29;973;-75
2022/01/03 11:55:32;;;;;;;;;;;;;;;22.21;29.37;97400.78;4907129;29;1204;-75
2022/01/03 12:03:50;;;;;;;;;;;;;;;22.10;29.56;97411.72;4826682;29;1197;-75
2022/01/03 12:06:29;;;;;;;;;;;;;;;22.10;29.56;97411.72;4826591;29;1982;-75
2022/01/03 12:09:15;;;;;;;;;;;;;;;22.10;29.26;97406.88;4808448;29;1047;-75
2022/01/03 12:11:52;;;;;;;;;;;;;;;21.84;30.03;97422.38;4808289;29;1194;-75
2022/01/03 12:14:18;;;;;;;;;;;;;;;21.79;30.13;97409.63;4794114;29;940;-75
2022/01/03 12:16:46;;;;;;;;;;;;;;;21.92;29.70;97420.09;4808641;29;1029;-75
2022/01/03 12:19:13;;;;;;;;;;;;;;;21.98;29.30;97421.88;4808232;29;944;-74
2022/01/03 12:21:50;;;;;;;;;;;;;;;21.98;29.06;97421.88;4808288;29;1123;-75
2022/01/03 12:24:27;;;;;;;;;;;;;;;21.64;29.51;97419.88;4807974;29;1071;-75
2022/01/03 12:27:11;;;;;;;;;;;;;;;21.82;29.36;97420.03;4808072;29;1915;-75
2022/01/03 12:29:55;;;;;;;;;;;;;;;21.66;29.71;97408.91;4808182;29;1087;-75
2022/01/03 12:32:20;;;;;;;;;;;;;;;21.73;29.34;97417.13;4807988;29;933;-75
2022/01/03 12:34:52;;;;;;;;;;;;;;;21.92;29.21;97420.09;4789741;29;1075;-75
2022/01/03 12:37:19;;;;;;;;;;;;;;;22.05;28.88;97412.31;4781622;29;1252;-75
2022/01/03 12:40:03;;;;;;;;;;;;;;;21.76;29.61;97410.56;4826504;29;1041;-74
2022/01/03 12:42:53;;;;;;;;;;;;;;;21.81;29.24;97403.47;4862829;29;896;-75
2022/01/03 12:45:30;;;;;;;;;;;;;;;21.63;29.50;97404.13;4881391;29;1907;-75
2022/01/03 12:48:10;;;;;;;;;;;;;;;21.22;30.30;97400.28;4881727;29;1083;-75
2022/01/03 12:50:39;;;;;;;;;;;;;;;21.87;29.31;97398.03;4881051;29;1072;-75
2022/01/03 12:53:05;;;;;;;;;;;;;;;21.71;29.44;97402.66;4881486;29;1103;-75
2022/01/03 12:55:36;;;;;;;;;;;;;;;21.80;29.13;97408.34;4881277;29;1009;-75
2022/01/03 12:58:14;;;;;;;;;;;;;;;21.74;29.27;97407.38;4880722;29;1080;-75
2022/01/03 13:00:43;;;;;;;;;;;;;;;21.72;30.10;97400.59;4881235;29;974;-75
2022/01/03 13:03:21;;;;;;;;;;;;;;;22.38;30.06;97386.38;4843887;29;980;-75
2022/01/03 13:06:05;;;;;;;;;;;;;;;22.45;29.37;97397.44;4852473;29;1978;-75
2022/01/03 13:08:30;;;;;;;;;;;;;;;22.07;29.57;97395.63;4862445;29;951;-75
2022/01/03 13:10:59;;;;;;;;;;;;;;;21.99;29.75;97394.34;4873124;29;979;-75
2022/01/03 13:13:28;;;;;;;;;;;;;;;22.14;29.58;97388.94;4865829;29;968;-75
2022/01/03 13:15:54;;;;;;;;;;;;;;;22.08;29.85;97374.56;4865573;29;949;-75
2022/01/03 13:18:22;;;;;;;;;;;;;;;22.19;29.66;97363.63;4861980;29;961;-75
2022/01/03 13:20:56;;;;;;;;;;;;;;;22.24;29.44;97363.03;4862254;29;1146;-75
2022/01/03 13:23:24;;;;;;;;;;;;;;;22.11;29.62;97356.66;4862127;29;1297;-75